createdAt,value
2018-01-26T00:01:10.504Z,8.27
2018-01-26T00:03:40.820Z,9.63
2018-01-26T00:06:10.680Z,8.27
2018-01-26T00:08:40.241Z,7.10
2018-01-26T00:11:10.511Z,8.03
2018-01-26T00:13:41.018Z,8.20
2018-01-26T00:16:10.517Z,9.10
2018-01-26T00:18:40.970Z,10.53
2018-01-26T00:21:11.226Z,9.30
2018-01-26T00:23:40.882Z,10.10
2018-01-26T00:26:10.647Z,10.10
2018-01-26T00:28:40.551Z,10.57
2018-01-26T00:31:10.923Z,8.20
2018-01-26T00:33:41.421Z,10.23
2018-01-26T00:36:11.372Z,10.17
2018-01-26T00:38:41.850Z,8.40
2018-01-26T00:41:11.728Z,13.40
2018-01-26T00:43:42.223Z,9.50
2018-01-26T00:46:11.853Z,12.57
2018-01-26T00:48:42.101Z,9.60
2018-01-26T00:51:10.923Z,13.40
2018-01-26T00:53:41.150Z,8.73
2018-01-26T00:56:11.459Z,10.47
2018-01-26T00:58:41.553Z,11.70
2018-01-26T01:01:12.629Z,11.63
2018-01-26T01:03:42.958Z,12.63
2018-01-26T01:06:13.563Z,9.07
2018-01-26T01:08:43.916Z,9.43
2018-01-26T01:11:15.024Z,10.30
2018-01-26T01:13:45.549Z,9.30
2018-01-26T01:16:16.228Z,9.80
2018-01-26T01:18:46.660Z,9.73
2018-01-26T01:21:16.991Z,9.60
2018-01-26T01:23:48.247Z,10.30
2018-01-26T01:26:20.268Z,10.30
2018-01-26T01:28:50.254Z,9.77
2018-01-26T01:31:20.672Z,8.43
2018-01-26T01:33:50.212Z,13.63
2018-01-26T01:36:21.295Z,12.63
2018-01-26T01:38:51.435Z,7.20
2018-01-26T01:41:21.856Z,11.17
2018-01-26T01:43:51.634Z,12.80
2018-01-26T01:46:21.831Z,12.67
2018-01-26T01:49:03.007Z,13.77
2018-01-26T01:51:33.618Z,10.93
2018-01-26T01:54:03.529Z,13.90
2018-01-26T01:56:34.339Z,7.83
2018-01-26T01:59:04.543Z,9.77
2018-01-26T02:01:34.730Z,8.87
2018-01-26T02:04:05.051Z,8.63
2018-01-26T02:06:35.325Z,11.33
2018-01-26T02:09:05.737Z,9.10
2018-01-26T02:11:36.228Z,10.43
2018-01-26T02:14:06.707Z,11.00
2018-01-26T02:16:37.610Z,11.97
2018-01-26T02:19:08.076Z,13.40
2018-01-26T02:21:38.633Z,11.33
2018-01-26T02:24:08.983Z,11.33
2018-01-26T02:26:39.034Z,10.67
2018-01-26T02:29:08.645Z,9.83
2018-01-26T02:31:38.430Z,11.67
2018-01-26T02:34:08.409Z,14.53
2018-01-26T02:36:39.038Z,13.00
2018-01-26T02:39:09.474Z,17.27
2018-01-26T02:41:40.468Z,10.40
2018-01-26T02:44:11.026Z,11.67
2018-01-26T02:46:41.341Z,12.23
2018-01-26T02:49:11.044Z,13.80
2018-01-26T02:51:41.205Z,12.30
2018-01-26T02:54:11.574Z,11.73
2018-01-26T02:56:41.987Z,12.23
2018-01-26T02:59:13.032Z,15.23
2018-01-26T03:01:43.430Z,12.37
2018-01-26T03:04:13.444Z,13.27
2018-01-26T03:06:45.379Z,15.80
2018-01-26T03:09:15.576Z,12.03
2018-01-26T03:11:46.040Z,12.97
2018-01-26T03:14:16.451Z,15.20
2018-01-26T03:16:47.143Z,12.50
2018-01-26T03:19:17.306Z,11.43
2018-01-26T03:21:48.802Z,11.73
2018-01-26T03:24:19.160Z,12.97
2018-01-26T03:26:49.635Z,15.67
2018-01-26T03:29:20.298Z,12.47
2018-01-26T03:31:50.539Z,16.33
2018-01-26T03:34:20.605Z,14.17
2018-01-26T03:36:50.869Z,13.60
2018-01-26T03:39:22.514Z,13.47
2018-01-26T03:41:53.112Z,10.40
2018-01-26T03:44:23.560Z,11.87
2018-01-26T03:46:54.277Z,11.20
2018-01-26T03:49:24.691Z,12.67
2018-01-26T03:51:54.917Z,17.80
2018-01-26T03:54:24.901Z,16.57
2018-01-26T03:56:55.770Z,14.30
2018-01-26T03:59:25.719Z,11.30
2018-01-26T04:01:56.160Z,17.43
2018-01-26T04:04:26.115Z,12.60
2018-01-26T04:06:56.611Z,15.80
2018-01-26T04:09:26.441Z,20.37
2018-01-26T04:11:56.832Z,14.83
2018-01-26T04:14:27.202Z,17.70
2018-01-26T04:16:57.455Z,13.50
2018-01-26T04:19:29.273Z,14.77
2018-01-26T04:21:59.260Z,16.50
2018-01-26T04:24:29.151Z,15.33
2018-01-26T04:26:59.635Z,12.00
2018-01-26T04:29:29.758Z,9.43
2018-01-26T04:31:59.811Z,13.83
2018-01-26T04:34:29.831Z,16.60
2018-01-26T04:36:59.858Z,17.50
2018-01-26T04:39:29.720Z,14.73
2018-01-26T04:41:59.589Z,13.40
2018-01-26T04:44:30.111Z,14.13
2018-01-26T04:47:01.864Z,14.80
2018-01-26T04:49:32.349Z,14.57
2018-01-26T04:52:02.813Z,18.43
2018-01-26T04:54:32.747Z,12.53
2018-01-26T04:57:02.550Z,21.07
2018-01-26T04:59:32.535Z,16.33
2018-01-26T05:02:02.330Z,16.53
2018-01-26T05:04:32.354Z,20.80
2018-01-26T05:07:03.350Z,20.40
2018-01-26T05:09:33.828Z,16.13
2018-01-26T05:12:04.226Z,17.53
2018-01-26T05:14:34.476Z,15.87
2018-01-26T05:17:04.443Z,21.07
2018-01-26T05:19:34.421Z,17.40
2018-01-26T05:22:04.934Z,17.40
2018-01-26T05:24:35.061Z,21.37
2018-01-26T05:27:05.548Z,17.60
2018-01-26T05:29:37.620Z,17.73
2018-01-26T05:32:08.060Z,18.47
2018-01-26T05:34:38.122Z,19.00
2018-01-26T05:37:08.269Z,16.80
2018-01-26T05:39:38.707Z,15.10
2018-01-26T05:42:09.023Z,16.37
2018-01-26T05:44:39.361Z,21.70
2018-01-26T05:47:09.090Z,15.07
2018-01-26T05:49:39.030Z,14.43
2018-01-26T05:52:09.192Z,25.87
2018-01-26T05:54:39.667Z,17.53
2018-01-26T05:57:09.776Z,15.07
2018-01-26T05:59:39.479Z,19.33
2018-01-26T06:02:09.326Z,16.10
2018-01-26T06:04:39.790Z,17.53
2018-01-26T06:07:08.809Z,15.90
2018-01-26T06:09:38.634Z,18.37
2018-01-26T06:12:07.911Z,20.00
2018-01-26T06:14:39.065Z,16.50
2018-01-26T06:17:09.224Z,28.30
2018-01-26T06:19:39.080Z,21.53
2018-01-26T06:22:09.442Z,17.57
2018-01-26T06:24:39.751Z,21.90
2018-01-26T06:27:10.445Z,16.87
2018-01-26T06:29:40.401Z,19.50
2018-01-26T06:32:10.949Z,17.33
2018-01-26T06:34:41.253Z,17.73
2018-01-26T06:37:11.600Z,17.70
2018-01-26T06:39:41.880Z,17.83
2018-01-26T06:42:12.354Z,17.53
2018-01-26T06:44:42.432Z,18.97
2018-01-26T06:47:13.069Z,19.27
2018-01-26T06:49:42.858Z,22.30
2018-01-26T06:52:13.925Z,16.70
2018-01-26T06:54:44.016Z,23.10
2018-01-26T06:57:15.251Z,18.87
2018-01-26T06:59:45.563Z,19.77
2018-01-26T07:02:15.204Z,27.83
2018-01-26T07:04:45.473Z,19.57
2018-01-26T07:07:15.519Z,24.33
2018-01-26T07:09:45.863Z,15.27
2018-01-26T07:12:15.429Z,14.37
2018-01-26T07:14:45.425Z,19.73
2018-01-26T07:17:15.807Z,15.70
2018-01-26T07:19:46.629Z,22.30
2018-01-26T07:22:16.940Z,19.53
2018-01-26T07:24:48.408Z,17.20
2018-01-26T07:27:20.609Z,22.13
2018-01-26T07:29:50.859Z,24.23
2018-01-26T07:32:21.027Z,20.57
2018-01-26T07:34:50.609Z,16.43
2018-01-26T07:37:20.493Z,18.47
2018-01-26T07:39:50.043Z,23.40
2018-01-26T07:42:20.647Z,16.37
2018-01-26T07:44:50.845Z,18.83
2018-01-26T07:47:21.495Z,22.03
2018-01-26T07:49:49.868Z,16.27
2018-01-26T07:52:18.179Z,20.07
2018-01-26T07:54:46.460Z,17.53
2018-01-26T07:57:15.104Z,18.87
2018-01-26T07:59:44.978Z,21.40
2018-01-26T08:02:13.277Z,20.07
2018-01-26T08:04:41.537Z,20.13
2018-01-26T08:07:09.873Z,19.60
2018-01-26T08:09:38.136Z,19.47
2018-01-26T08:12:06.437Z,17.40
2018-01-26T08:14:35.544Z,15.40
2018-01-26T08:17:04.688Z,13.90
2018-01-26T08:19:33.117Z,19.53
2018-01-26T08:22:01.408Z,23.33
2018-01-26T08:24:29.648Z,17.87
2018-01-26T08:26:58.090Z,20.23
2018-01-26T08:29:26.332Z,18.03
2018-01-26T08:31:55.858Z,17.13
2018-01-26T08:34:24.149Z,17.70
2018-01-26T08:36:52.513Z,23.33
2018-01-26T08:39:20.896Z,14.73
2018-01-26T08:41:49.150Z,18.93
2018-01-26T08:44:17.412Z,19.73
2018-01-26T08:46:45.656Z,15.70
2018-01-26T08:49:13.986Z,21.23
2018-01-26T08:51:43.012Z,17.20
2018-01-26T08:54:11.257Z,25.83
2018-01-26T08:56:39.698Z,17.60
2018-01-26T08:59:07.971Z,16.60
2018-01-26T09:01:37.925Z,17.47
2018-01-26T09:04:06.174Z,22.97
2018-01-26T09:06:34.449Z,15.80
2018-01-26T09:09:03.489Z,20.80
2018-01-26T09:11:31.801Z,20.13
2018-01-26T09:14:00.050Z,22.37
2018-01-26T09:16:28.338Z,15.73
2018-01-26T09:18:56.616Z,22.43
2018-01-26T09:21:24.864Z,20.47
2018-01-26T09:23:53.105Z,15.07
2018-01-26T09:26:21.482Z,17.53
2018-01-26T09:28:49.697Z,24.03
2018-01-26T09:31:17.987Z,21.20
2018-01-26T09:33:46.270Z,22.17
2018-01-26T09:36:14.790Z,16.33
2018-01-26T09:38:43.006Z,20.97
2018-01-26T09:41:11.365Z,25.53
2018-01-26T09:43:39.630Z,23.40
2018-01-26T09:46:08.641Z,19.40
2018-01-26T09:48:36.924Z,20.27
2018-01-26T09:51:05.182Z,23.47
2018-01-26T09:53:34.360Z,19.17
2018-01-26T09:56:02.765Z,16.27
2018-01-26T09:58:31.888Z,19.23
2018-01-26T10:01:00.154Z,16.50
2018-01-26T10:03:28.416Z,23.93
2018-01-26T10:05:57.524Z,18.60
2018-01-26T10:08:25.796Z,23.70
2018-01-26T10:10:54.242Z,20.27
2018-01-26T10:13:22.456Z,19.43
2018-01-26T10:15:50.730Z,22.80
2018-01-26T10:18:18.972Z,19.03
2018-01-26T10:20:48.013Z,28.20
2018-01-26T10:23:16.286Z,16.43
2018-01-26T10:25:44.523Z,21.60
2018-01-26T10:28:12.776Z,18.83
2018-01-26T10:30:41.024Z,26.00
2018-01-26T10:33:09.265Z,29.57
2018-01-26T10:35:38.360Z,23.10
2018-01-26T10:38:07.497Z,16.27
2018-01-26T10:40:35.817Z,19.23
2018-01-26T10:43:05.526Z,31.13
2018-01-26T10:45:33.834Z,16.10
2018-01-26T10:48:02.070Z,18.60
2018-01-26T10:50:31.825Z,20.93
2018-01-26T10:53:00.085Z,20.60
2018-01-26T10:55:28.349Z,19.03
2018-01-26T10:57:56.613Z,21.20
2018-01-26T11:00:25.652Z,17.60
2018-01-26T11:02:53.978Z,19.80
2018-01-26T11:05:23.745Z,20.63
2018-01-26T11:07:52.113Z,24.07
2018-01-26T11:10:20.760Z,18.40
2018-01-26T11:12:49.115Z,19.43
2018-01-26T11:15:17.408Z,21.57
2018-01-26T11:17:45.708Z,24.60
2018-01-26T11:20:14.001Z,25.13
2018-01-26T11:22:42.308Z,25.70
2018-01-26T11:25:10.565Z,18.13
2018-01-26T11:27:38.813Z,21.20
2018-01-26T11:30:07.891Z,18.10
2018-01-26T11:32:36.112Z,21.60
2018-01-26T11:35:04.363Z,23.17
2018-01-26T11:37:32.625Z,28.00
2018-01-26T11:40:00.913Z,20.83
2018-01-26T11:42:29.378Z,23.80
2018-01-26T11:44:58.065Z,23.00
2018-01-26T11:47:27.198Z,23.60
2018-01-26T11:49:55.406Z,28.33
2018-01-26T11:52:24.244Z,22.50
2018-01-26T11:54:53.248Z,16.63
2018-01-26T11:57:21.528Z,24.13
2018-01-26T11:59:49.876Z,20.70
2018-01-26T12:02:18.118Z,20.20
2018-01-26T12:04:46.424Z,15.73
2018-01-26T12:07:14.672Z,21.10
2018-01-26T12:09:42.905Z,22.63
2018-01-26T12:12:11.400Z,15.30
2018-01-26T12:14:39.646Z,18.43
2018-01-26T12:17:10.120Z,13.97
2018-01-26T12:19:38.368Z,20.30
2018-01-26T12:22:06.820Z,13.13
2018-01-26T12:24:35.141Z,14.97
2018-01-26T12:27:03.620Z,11.47
2018-01-26T12:29:32.080Z,15.60
2018-01-26T12:32:01.802Z,14.23
2018-01-26T12:34:30.267Z,14.00
2018-01-26T12:36:58.477Z,24.60
2018-01-26T12:39:26.749Z,12.57
2018-01-26T12:41:54.979Z,16.97
2018-01-26T12:44:23.253Z,18.37
2018-01-26T12:46:51.973Z,16.90
2018-01-26T12:49:20.165Z,18.97
2018-01-26T12:51:48.645Z,13.33
2018-01-26T12:54:16.916Z,17.63
2018-01-26T12:56:45.206Z,11.60
2018-01-26T12:59:13.473Z,12.33
2018-01-26T13:01:41.798Z,16.77
2018-01-26T13:04:10.074Z,14.80
2018-01-26T13:06:38.285Z,10.20
2018-01-26T13:09:06.544Z,14.50
2018-01-26T13:11:34.826Z,13.73
2018-01-26T13:14:03.064Z,15.83
2018-01-26T13:16:31.356Z,12.20
2018-01-26T13:18:59.598Z,18.37
2018-01-26T13:21:27.919Z,11.17
2018-01-26T13:23:56.332Z,16.43
2018-01-26T13:26:24.589Z,11.70
2018-01-26T13:28:52.851Z,13.57
2018-01-26T13:31:21.105Z,11.30
2018-01-26T13:33:49.389Z,13.63
2018-01-26T13:36:17.610Z,11.87
2018-01-26T13:38:45.877Z,14.00
2018-01-26T13:41:14.162Z,15.07
2018-01-26T13:43:42.429Z,11.23
2018-01-26T13:46:10.668Z,9.43
2018-01-26T13:48:39.693Z,15.60
2018-01-26T13:51:07.954Z,16.47
2018-01-26T13:53:37.140Z,15.63
2018-01-26T13:56:05.344Z,12.27
2018-01-26T13:58:33.612Z,17.97
2018-01-26T14:01:02.013Z,17.60
2018-01-26T14:03:30.263Z,14.50
2018-01-26T14:05:58.531Z,18.07
2018-01-26T14:08:29.065Z,16.10
2018-01-26T14:10:58.086Z,14.73
2018-01-26T14:13:26.345Z,12.90
2018-01-26T14:15:54.599Z,19.13
2018-01-26T14:18:23.641Z,11.57
2018-01-26T14:20:51.908Z,15.60
2018-01-26T14:23:20.165Z,12.60
2018-01-26T14:25:49.188Z,16.47
2018-01-26T14:28:17.432Z,10.40
2018-01-26T14:30:45.733Z,16.33
2018-01-26T14:33:14.189Z,11.80
2018-01-26T14:35:42.616Z,16.17
2018-01-26T14:38:10.935Z,12.23
2018-01-26T14:40:39.171Z,15.13
2018-01-26T14:43:07.443Z,11.67
2018-01-26T14:45:35.721Z,9.17
2018-01-26T14:48:04.108Z,9.50
2018-01-26T14:50:32.378Z,11.50
2018-01-26T14:53:00.640Z,14.63
2018-01-26T14:55:28.885Z,13.47
2018-01-26T14:57:57.167Z,17.30
2018-01-26T15:00:26.156Z,13.40
2018-01-26T15:02:55.233Z,14.70
2018-01-26T15:05:23.697Z,7.50
2018-01-26T15:07:51.977Z,25.67
2018-01-26T15:10:20.246Z,8.80
2018-01-26T15:12:48.523Z,15.10
2018-01-26T15:15:16.789Z,18.80
2018-01-26T15:17:45.044Z,15.37
2018-01-26T15:20:13.310Z,14.90
2018-01-26T15:22:41.596Z,12.33
2018-01-26T15:25:09.845Z,14.50
2018-01-26T15:27:38.104Z,12.93
2018-01-26T15:30:06.377Z,12.40
2018-01-26T15:32:34.617Z,10.07
2018-01-26T15:35:02.878Z,17.23
2018-01-26T15:37:31.201Z,11.67
2018-01-26T15:39:59.433Z,10.10
2018-01-26T15:42:27.782Z,7.70
2018-01-26T15:44:56.245Z,9.23
2018-01-26T15:47:24.524Z,16.20
2018-01-26T15:49:52.922Z,11.57
2018-01-26T15:52:21.274Z,14.50
2018-01-26T15:54:50.300Z,13.90
2018-01-26T15:57:18.545Z,15.20
2018-01-26T15:59:46.809Z,8.87
2018-01-26T16:02:15.104Z,14.13
2018-01-26T16:04:44.289Z,15.20
2018-01-26T16:07:12.526Z,10.20
2018-01-26T16:09:40.837Z,9.90
2018-01-26T16:12:09.664Z,10.80
2018-01-26T16:14:38.127Z,10.23
2018-01-26T16:17:06.538Z,9.20
2018-01-26T16:19:34.813Z,10.10
2018-01-26T16:22:03.112Z,11.20
2018-01-26T16:24:31.431Z,13.80
2018-01-26T16:26:59.668Z,15.53
2018-01-26T16:29:27.934Z,13.37
2018-01-26T16:31:56.321Z,14.10
2018-01-26T16:34:24.727Z,10.30
2018-01-26T16:36:52.997Z,12.70
2018-01-26T16:39:21.332Z,11.40
2018-01-26T16:41:49.785Z,18.07
2018-01-26T16:44:18.247Z,11.07
2018-01-26T16:46:46.637Z,11.50
2018-01-26T16:49:15.634Z,13.90
2018-01-26T16:51:44.670Z,13.40
2018-01-26T16:54:12.950Z,12.70
2018-01-26T16:56:41.221Z,16.80
2018-01-26T16:59:09.743Z,28.00
2018-01-26T17:01:37.973Z,15.40
2018-01-26T17:04:06.258Z,23.10
2018-01-26T17:06:34.574Z,10.50
2018-01-26T17:09:03.261Z,16.50
2018-01-26T17:11:31.515Z,18.00
2018-01-26T17:13:59.775Z,13.23
2018-01-26T17:16:28.091Z,20.50
2018-01-26T17:18:56.341Z,16.73
2018-01-26T17:21:25.019Z,14.20
2018-01-26T17:23:53.273Z,12.43
2018-01-26T17:26:21.547Z,15.40
2018-01-26T17:28:49.798Z,14.10
2018-01-26T17:31:18.059Z,11.60
2018-01-26T17:33:46.321Z,18.73
2018-01-26T17:36:14.552Z,16.50
2018-01-26T17:38:44.069Z,11.20
2018-01-26T17:41:13.072Z,19.77
2018-01-26T17:43:41.395Z,21.97
2018-01-26T17:46:10.443Z,20.30
2018-01-26T17:48:38.706Z,18.80
2018-01-26T17:51:06.941Z,22.97
2018-01-26T17:53:35.212Z,20.00
2018-01-26T17:56:03.470Z,18.63
2018-01-26T17:58:32.454Z,13.13
2018-01-26T18:01:00.935Z,13.43
2018-01-26T18:03:29.173Z,14.43
2018-01-26T18:05:57.456Z,14.10
2018-01-26T18:08:25.908Z,13.53
2018-01-26T18:10:54.169Z,11.10
2018-01-26T18:13:23.070Z,11.50
2018-01-26T18:15:51.349Z,14.03
2018-01-26T18:18:19.605Z,12.93
2018-01-26T18:20:47.852Z,12.03
2018-01-26T18:23:16.117Z,14.17
2018-01-26T18:25:44.375Z,15.50
2018-01-26T18:28:12.649Z,12.73
2018-01-26T18:30:40.883Z,9.47
2018-01-26T18:33:09.151Z,13.30
2018-01-26T18:35:37.594Z,10.40
2018-01-26T18:38:05.842Z,11.90
2018-01-26T18:40:34.121Z,14.63
2018-01-26T18:43:02.496Z,13.17
2018-01-26T18:45:31.529Z,29.43
2018-01-26T18:47:59.980Z,13.80
2018-01-26T18:50:28.241Z,15.57
2018-01-26T18:52:56.530Z,16.13
2018-01-26T18:55:24.765Z,12.20
2018-01-26T18:57:53.054Z,20.63
2018-01-26T19:00:21.448Z,18.43
2018-01-26T19:02:50.503Z,20.60
2018-01-26T19:05:18.840Z,28.57
2018-01-26T19:07:47.140Z,21.40
2018-01-26T19:10:15.456Z,18.77
2018-01-26T19:12:43.756Z,15.30
2018-01-26T19:15:12.033Z,18.00
2018-01-26T19:17:40.323Z,22.33
2018-01-26T19:20:08.575Z,18.00
2018-01-26T19:22:38.493Z,14.47
2018-01-26T19:25:06.737Z,17.60
2018-01-26T19:27:35.950Z,15.13
2018-01-26T19:30:04.625Z,16.67
2018-01-26T19:32:32.859Z,25.10
2018-01-26T19:35:01.251Z,13.97
2018-01-26T19:37:30.139Z,17.37
2018-01-26T19:39:58.765Z,15.27
2018-01-26T19:42:27.041Z,19.37
2018-01-26T19:44:57.133Z,13.93
2018-01-26T19:47:26.175Z,17.30
2018-01-26T19:49:55.300Z,15.47
2018-01-26T19:52:24.630Z,26.47
2018-01-26T19:54:53.344Z,23.60
2018-01-26T19:57:21.613Z,15.90
2018-01-26T19:59:50.258Z,14.80
2018-01-26T20:02:18.520Z,16.67
2018-01-26T20:04:52.552Z,18.43
2018-01-26T20:07:28.773Z,21.40
2018-01-26T20:09:57.144Z,19.67
2018-01-26T20:12:25.440Z,21.50
2018-01-26T20:14:54.603Z,18.87
2018-01-26T20:17:23.297Z,16.70
2018-01-26T20:19:51.773Z,16.53
2018-01-26T20:22:20.027Z,17.27
2018-01-26T20:24:48.303Z,20.00
2018-01-26T20:27:16.594Z,19.40
2018-01-26T20:29:49.189Z,24.80
2018-01-26T20:32:19.500Z,21.33
2018-01-26T20:34:47.707Z,19.73
2018-01-26T20:37:15.955Z,18.83
2018-01-26T20:39:44.331Z,24.70
2018-01-26T20:42:12.578Z,22.90
2018-01-26T20:44:41.107Z,19.70
2018-01-26T20:47:10.189Z,25.80
2018-01-26T20:49:38.436Z,22.50
2018-01-26T20:52:06.960Z,26.10
2018-01-26T20:54:35.975Z,18.67
2018-01-26T20:57:04.251Z,25.90
2018-01-26T20:59:33.106Z,23.97
2018-01-26T21:02:01.991Z,21.60
2018-01-26T21:04:30.248Z,19.27
2018-01-26T21:06:58.704Z,18.13
2018-01-26T21:09:26.958Z,16.70
2018-01-26T21:11:55.520Z,24.00
2018-01-26T21:14:24.170Z,22.40
2018-01-26T21:16:53.191Z,19.20
2018-01-26T21:19:21.449Z,19.10
2018-01-26T21:21:49.973Z,24.30
2018-01-26T21:24:18.255Z,21.30
2018-01-26T21:26:46.505Z,21.57
2018-01-26T21:29:15.718Z,22.53
2018-01-26T21:31:44.097Z,24.93
2018-01-26T21:34:13.115Z,22.63
2018-01-26T21:36:41.389Z,19.53
2018-01-26T21:39:09.666Z,20.70
2018-01-26T21:41:37.997Z,23.63
2018-01-26T21:44:06.416Z,21.90
2018-01-26T21:46:34.860Z,25.40
2018-01-26T21:49:03.206Z,24.33
2018-01-26T21:51:31.619Z,22.03
2018-01-26T21:53:59.827Z,24.60
2018-01-26T21:56:28.089Z,28.27
2018-01-26T21:58:56.553Z,27.40
2018-01-26T22:01:24.926Z,23.80
2018-01-26T22:03:53.253Z,23.27
2018-01-26T22:06:27.177Z,24.80
2018-01-26T22:08:55.490Z,22.53
2018-01-26T22:11:23.720Z,27.00
2018-01-26T22:13:51.973Z,25.57
2018-01-26T22:16:20.228Z,20.80
2018-01-26T22:18:49.239Z,23.90
2018-01-26T22:21:17.677Z,20.67
2018-01-26T22:23:46.010Z,29.30
2018-01-26T22:26:14.322Z,20.60
2018-01-26T22:28:42.932Z,20.50
2018-01-26T22:31:11.151Z,23.40
2018-01-26T22:33:39.434Z,19.00
2018-01-26T22:36:07.968Z,20.40
2018-01-26T22:38:36.253Z,20.30
2018-01-26T22:41:04.488Z,18.53
2018-01-26T22:43:33.571Z,22.83
2018-01-26T22:46:01.809Z,19.80
2018-01-26T22:48:30.086Z,22.03
2018-01-26T22:50:59.322Z,22.50
2018-01-26T22:53:27.618Z,20.67
2018-01-26T22:55:55.923Z,18.93
2018-01-26T22:58:24.334Z,19.40
2018-01-26T23:00:52.574Z,19.57
2018-01-26T23:03:20.860Z,20.93
2018-01-26T23:05:49.140Z,19.83
2018-01-26T23:08:17.459Z,20.27
2018-01-26T23:10:45.731Z,17.90
2018-01-26T23:13:15.446Z,20.37
2018-01-26T23:15:43.689Z,17.77
2018-01-26T23:18:11.961Z,20.87
2018-01-26T23:20:40.981Z,20.87
2018-01-26T23:23:09.229Z,18.90
2018-01-26T23:25:38.270Z,16.67
2018-01-26T23:28:06.633Z,20.20
2018-01-26T23:30:34.914Z,20.03
2018-01-26T23:33:03.198Z,20.17
2018-01-26T23:35:31.614Z,19.40
2018-01-26T23:37:59.825Z,20.73
2018-01-26T23:40:28.268Z,22.80
2018-01-26T23:42:56.544Z,22.80
2018-01-26T23:45:24.774Z,24.60
2018-01-26T23:47:53.097Z,22.00
2018-01-26T23:50:21.317Z,19.97
2018-01-26T23:52:49.650Z,17.90
2018-01-26T23:55:17.907Z,18.10
2018-01-26T23:57:46.213Z,21.37
